createdAt,value
2023-02-25T00:00:18.457Z,989.45
2023-02-25T00:01:18.454Z,989.40
2023-02-25T00:02:18.461Z,989.46
2023-02-25T00:03:18.500Z,989.46
2023-02-25T00:04:18.407Z,989.52
2023-02-25T00:05:18.393Z,989.54
2023-02-25T00:06:18.381Z,989.52
2023-02-25T00:07:18.369Z,989.52
2023-02-25T00:08:18.355Z,989.50
2023-02-25T00:09:18.341Z,989.56
2023-02-25T00:10:18.393Z,989.62
2023-02-25T00:11:18.320Z,989.63
2023-02-25T00:12:18.309Z,989.69
2023-02-25T00:13:18.745Z,989.74
2023-02-25T00:14:18.285Z,989.67
2023-02-25T00:15:18.272Z,989.69
2023-02-25T00:16:18.282Z,989.74
2023-02-25T00:17:18.270Z,989.67
2023-02-25T00:18:18.229Z,989.68
2023-02-25T00:19:18.217Z,989.66
2023-02-25T00:20:18.205Z,989.69
2023-02-25T00:21:18.193Z,989.64
2023-02-25T00:22:18.194Z,989.62
2023-02-25T00:23:18.166Z,989.71
2023-02-25T00:24:18.152Z,989.66
2023-02-25T00:25:18.147Z,989.71
2023-02-25T00:26:18.135Z,989.71
2023-02-25T00:27:18.115Z,989.70
2023-02-25T00:28:25.274Z,989.68
2023-02-25T00:30:11.199Z,989.60
2023-02-25T00:31:11.264Z,989.61
2023-02-25T00:33:15.180Z,989.64
2023-02-25T00:34:15.160Z,989.63
2023-02-25T00:36:19.159Z,989.61
2023-02-25T00:37:19.177Z,989.62
2023-02-25T00:39:12.063Z,989.62
2023-02-25T00:40:12.033Z,989.62
2023-02-25T00:42:16.008Z,989.59
2023-02-25T00:43:15.982Z,989.55
2023-02-25T00:45:09.076Z,989.56
2023-02-25T00:46:09.110Z,989.54
2023-02-25T00:48:13.030Z,989.59
2023-02-25T00:49:21.214Z,989.54
2023-02-25T00:51:17.004Z,989.56
2023-02-25T00:52:17.030Z,989.56
2023-02-25T00:54:20.948Z,989.51
2023-02-25T00:55:20.937Z,989.53
2023-02-25T00:57:24.902Z,989.48
2023-02-25T00:58:24.880Z,989.49
2023-02-25T01:00:28.852Z,989.42
2023-02-25T01:01:28.889Z,989.42
2023-02-25T01:02:28.848Z,989.39
2023-02-25T01:03:28.795Z,989.41
2023-02-25T01:04:28.789Z,989.38
2023-02-25T01:05:28.783Z,989.39
2023-02-25T01:06:28.806Z,989.45
2023-02-25T01:07:28.746Z,989.44
2023-02-25T01:08:28.762Z,989.40
2023-02-25T01:09:28.717Z,989.39
2023-02-25T01:10:28.709Z,989.38
2023-02-25T01:11:28.704Z,989.38
2023-02-25T01:12:28.674Z,989.35
2023-02-25T01:13:28.668Z,989.34
2023-02-25T01:14:28.648Z,989.33
2023-02-25T01:15:28.640Z,989.37
2023-02-25T01:16:28.666Z,989.35
2023-02-25T01:17:28.608Z,989.36
2023-02-25T01:18:28.595Z,989.35
2023-02-25T01:19:28.581Z,989.30
2023-02-25T01:20:28.570Z,989.29
2023-02-25T01:21:28.573Z,989.32
2023-02-25T01:22:28.545Z,989.29
2023-02-25T01:23:28.529Z,989.33
2023-02-25T01:24:28.522Z,989.30
2023-02-25T01:25:28.518Z,989.27
2023-02-25T01:26:28.493Z,989.30
2023-02-25T01:27:28.477Z,989.35
2023-02-25T01:28:28.462Z,989.33
2023-02-25T01:29:28.466Z,989.34
2023-02-25T01:30:28.436Z,989.34
2023-02-25T01:31:28.603Z,989.32
2023-02-25T01:32:28.511Z,989.34
2023-02-25T01:33:28.395Z,989.34
2023-02-25T01:34:28.381Z,989.33
2023-02-25T01:35:28.373Z,989.36
2023-02-25T01:36:28.360Z,989.35
2023-02-25T01:37:28.351Z,989.33
2023-02-25T01:38:28.331Z,989.35
2023-02-25T01:39:28.321Z,989.30
2023-02-25T01:40:28.305Z,989.30
2023-02-25T01:41:28.290Z,989.28
2023-02-25T01:42:28.837Z,989.31
2023-02-25T01:43:28.267Z,989.29
2023-02-25T01:44:28.291Z,989.29
2023-02-25T01:45:28.251Z,989.30
2023-02-25T01:46:28.338Z,989.32
2023-02-25T01:47:28.286Z,989.29
2023-02-25T01:48:28.205Z,989.31
2023-02-25T01:49:28.212Z,989.34
2023-02-25T01:50:28.180Z,989.31
2023-02-25T01:51:28.175Z,989.28
2023-02-25T01:52:28.152Z,989.20
2023-02-25T01:53:28.133Z,989.29
2023-02-25T01:54:28.119Z,989.33
2023-02-25T01:55:28.118Z,989.27
2023-02-25T01:56:28.110Z,989.27
2023-02-25T01:57:28.089Z,989.31
2023-02-25T01:58:28.073Z,989.27
2023-02-25T01:59:28.053Z,989.29
2023-02-25T02:00:28.097Z,989.30
2023-02-25T02:01:28.036Z,989.28
2023-02-25T02:02:28.080Z,989.32
2023-02-25T02:03:28.013Z,989.29
2023-02-25T02:04:27.989Z,989.35
2023-02-25T02:05:27.981Z,989.26
2023-02-25T02:06:27.979Z,989.34
2023-02-25T02:07:27.949Z,989.31
2023-02-25T02:08:27.944Z,989.40
2023-02-25T02:09:27.940Z,989.29
2023-02-25T02:10:27.915Z,989.34
2023-02-25T02:11:27.915Z,989.34
2023-02-25T02:12:27.888Z,989.38
2023-02-25T02:13:27.881Z,989.23
2023-02-25T02:14:27.862Z,989.30
2023-02-25T02:15:27.857Z,989.30
2023-02-25T02:16:27.924Z,989.33
2023-02-25T02:17:30.099Z,989.33
2023-02-25T02:18:27.804Z,989.37
2023-02-25T02:19:27.815Z,989.28
2023-02-25T02:20:27.822Z,989.30
2023-02-25T02:21:27.770Z,989.29
2023-02-25T02:22:27.757Z,989.28
2023-02-25T02:23:27.744Z,989.31
2023-02-25T02:24:27.742Z,989.31
2023-02-25T02:25:27.726Z,989.31
2023-02-25T02:26:27.707Z,989.31
2023-02-25T02:27:27.691Z,989.35
2023-02-25T02:28:27.716Z,989.33
2023-02-25T02:29:27.665Z,989.34
2023-02-25T02:30:27.808Z,989.34
2023-02-25T02:31:27.666Z,989.32
2023-02-25T02:32:27.701Z,989.34
2023-02-25T02:33:27.612Z,989.29
2023-02-25T02:34:27.603Z,989.34
2023-02-25T02:35:27.587Z,989.29
2023-02-25T02:36:27.574Z,989.38
2023-02-25T02:37:27.560Z,989.40
2023-02-25T02:38:27.570Z,989.37
2023-02-25T02:39:27.532Z,989.33
2023-02-25T02:40:27.523Z,989.35
2023-02-25T02:41:27.534Z,989.33
2023-02-25T02:42:27.551Z,989.32
2023-02-25T02:43:27.483Z,989.38
2023-02-25T02:44:27.469Z,989.21
2023-02-25T02:45:27.466Z,989.18
2023-02-25T02:46:27.461Z,989.35
2023-02-25T02:47:27.431Z,989.38
2023-02-25T02:48:27.427Z,989.44
2023-02-25T02:49:27.405Z,989.41
2023-02-25T02:50:27.393Z,989.43
2023-02-25T02:51:27.371Z,989.42
2023-02-25T02:52:27.359Z,989.44
2023-02-25T02:53:27.347Z,989.41
2023-02-25T02:54:27.331Z,989.41
2023-02-25T02:55:27.329Z,989.46
2023-02-25T02:56:27.309Z,989.51
2023-02-25T02:57:27.292Z,989.51
2023-02-25T02:58:27.279Z,989.52
2023-02-25T02:59:27.304Z,989.55
2023-02-25T03:00:27.252Z,989.58
2023-02-25T03:01:27.306Z,989.54
2023-02-25T03:02:27.225Z,989.54
2023-02-25T03:03:27.212Z,989.62
2023-02-25T03:04:27.196Z,989.61
2023-02-25T03:05:27.186Z,989.65
2023-02-25T03:06:27.206Z,989.63
2023-02-25T03:07:27.165Z,989.65
2023-02-25T03:08:27.145Z,989.65
2023-02-25T03:09:27.131Z,989.73
2023-02-25T03:10:27.120Z,989.76
2023-02-25T03:11:27.104Z,989.68
2023-02-25T03:12:27.098Z,989.64
2023-02-25T03:13:27.077Z,989.71
2023-02-25T03:14:27.065Z,989.69
2023-02-25T03:15:27.052Z,989.77
2023-02-25T03:16:27.078Z,989.69
2023-02-25T03:17:27.029Z,989.75
2023-02-25T03:18:27.048Z,989.80
2023-02-25T03:19:26.999Z,989.80
2023-02-25T03:20:26.987Z,989.79
2023-02-25T03:21:26.975Z,989.81
2023-02-25T03:22:26.966Z,989.85
2023-02-25T03:23:26.962Z,989.87
2023-02-25T03:24:26.935Z,989.88
2023-02-25T03:25:26.925Z,989.86
2023-02-25T03:26:26.921Z,989.90
2023-02-25T03:27:26.910Z,989.91
2023-02-25T03:28:26.885Z,989.90
2023-02-25T03:29:26.877Z,989.93
2023-02-25T03:30:26.878Z,989.95
2023-02-25T03:31:26.869Z,989.98
2023-02-25T03:32:26.958Z,990.01
2023-02-25T03:33:26.829Z,990.03
2023-02-25T03:34:26.809Z,990.04
2023-02-25T03:35:26.793Z,990.06
2023-02-25T03:36:26.806Z,990.10
2023-02-25T03:37:26.771Z,990.08
2023-02-25T03:38:26.756Z,990.08
2023-02-25T03:39:26.749Z,990.10
2023-02-25T03:40:26.730Z,990.09
2023-02-25T03:41:26.722Z,990.09
2023-02-25T03:42:26.706Z,990.13
2023-02-25T03:43:26.693Z,990.16
2023-02-25T03:44:26.694Z,990.12
2023-02-25T03:45:26.669Z,990.19
2023-02-25T03:46:26.913Z,990.13
2023-02-25T03:47:26.642Z,990.23
2023-02-25T03:48:26.647Z,990.10
2023-02-25T03:49:26.614Z,990.20
2023-02-25T03:50:26.603Z,990.17
2023-02-25T03:51:26.602Z,990.26
2023-02-25T03:52:26.577Z,990.26
2023-02-25T03:53:26.559Z,990.23
2023-02-25T03:54:26.555Z,990.21
2023-02-25T03:55:26.529Z,990.30
2023-02-25T03:56:26.524Z,990.23
2023-02-25T03:57:26.504Z,990.29
2023-02-25T03:58:26.490Z,990.28
2023-02-25T03:59:26.484Z,990.29
2023-02-25T04:00:26.463Z,990.22
2023-02-25T04:01:26.449Z,990.38
2023-02-25T04:02:26.465Z,990.30
2023-02-25T04:03:26.423Z,990.36
2023-02-25T04:04:26.591Z,990.37
2023-02-25T04:05:26.395Z,990.37
2023-02-25T04:06:26.529Z,990.38
2023-02-25T04:07:26.373Z,990.38
2023-02-25T04:08:26.356Z,990.48
2023-02-25T04:09:26.349Z,990.46
2023-02-25T04:10:26.337Z,990.50
2023-02-25T04:11:26.310Z,990.46
2023-02-25T04:12:26.297Z,990.52
2023-02-25T04:13:26.291Z,990.45
2023-02-25T04:14:26.281Z,990.57
2023-02-25T04:15:26.284Z,990.58
2023-02-25T04:16:26.252Z,990.60
2023-02-25T04:17:26.237Z,990.67
2023-02-25T04:18:26.220Z,990.58
2023-02-25T04:19:26.212Z,990.67
2023-02-25T04:20:26.193Z,990.67
2023-02-25T04:21:26.188Z,990.73
2023-02-25T04:22:26.176Z,990.67
2023-02-25T04:23:26.156Z,990.73
2023-02-25T04:24:26.145Z,990.72
2023-02-25T04:25:26.125Z,990.71
2023-02-25T04:26:26.132Z,990.79
2023-02-25T04:27:26.107Z,990.75
2023-02-25T04:28:26.090Z,990.78
2023-02-25T04:29:26.083Z,990.77
2023-02-25T04:30:26.085Z,990.76
2023-02-25T04:31:26.146Z,990.75
2023-02-25T04:32:26.097Z,990.79
2023-02-25T04:33:26.034Z,990.74
2023-02-25T04:34:26.010Z,990.81
2023-02-25T04:35:25.996Z,990.77
2023-02-25T04:36:25.989Z,990.82
2023-02-25T04:37:25.971Z,990.82
2023-02-25T04:38:25.954Z,990.94
2023-02-25T04:39:25.948Z,990.97
2023-02-25T04:40:25.930Z,990.90
2023-02-25T04:41:25.918Z,990.97
2023-02-25T04:42:25.942Z,990.89
2023-02-25T04:43:25.888Z,990.96
2023-02-25T04:44:25.882Z,990.97
2023-02-25T04:45:27.030Z,990.91
2023-02-25T04:46:26.321Z,991.00
2023-02-25T04:47:25.856Z,990.93
2023-02-25T04:48:25.820Z,991.01
2023-02-25T04:49:25.819Z,991.00
2023-02-25T04:50:25.792Z,991.02
2023-02-25T04:51:25.820Z,990.96
2023-02-25T04:52:25.768Z,991.02
2023-02-25T04:53:25.763Z,991.07
2023-02-25T04:54:25.743Z,991.01
2023-02-25T04:55:25.733Z,991.04
2023-02-25T04:56:25.984Z,990.99
2023-02-25T04:57:25.702Z,991.07
2023-02-25T04:58:25.692Z,991.05
2023-02-25T04:59:25.676Z,991.03
2023-02-25T05:00:25.660Z,991.06
2023-02-25T05:01:25.692Z,990.99
2023-02-25T05:02:25.647Z,991.05
2023-02-25T05:03:25.620Z,991.06
2023-02-25T05:04:25.623Z,990.97
2023-02-25T05:05:25.595Z,990.88
2023-02-25T05:06:25.819Z,991.01
2023-02-25T05:07:25.571Z,991.05
2023-02-25T05:08:25.581Z,991.14
2023-02-25T05:09:25.544Z,991.09
2023-02-25T05:10:25.525Z,991.12
2023-02-25T05:11:25.522Z,991.07
2023-02-25T05:12:25.501Z,991.15
2023-02-25T05:13:25.487Z,991.12
2023-02-25T05:14:25.486Z,991.21
2023-02-25T05:15:25.480Z,991.14
2023-02-25T05:16:25.877Z,991.25
2023-02-25T05:17:25.432Z,991.10
2023-02-25T05:18:25.422Z,991.20
2023-02-25T05:19:25.407Z,991.24
2023-02-25T05:20:25.439Z,991.12
2023-02-25T05:21:25.375Z,991.25
2023-02-25T05:22:25.368Z,991.23
2023-02-25T05:23:25.352Z,991.17
2023-02-25T05:24:25.340Z,991.26
2023-02-25T05:25:25.324Z,991.27
2023-02-25T05:26:25.657Z,991.28
2023-02-25T05:27:25.318Z,991.31
2023-02-25T05:28:25.287Z,991.30
2023-02-25T05:29:25.341Z,991.35
2023-02-25T05:30:25.256Z,991.31
2023-02-25T05:31:25.448Z,991.28
2023-02-25T05:32:25.400Z,991.38
2023-02-25T05:33:25.218Z,991.37
2023-02-25T05:34:25.206Z,991.38
2023-02-25T05:35:25.191Z,991.41
2023-02-25T05:36:28.013Z,991.39
2023-02-25T05:37:25.163Z,991.35
2023-02-25T05:38:25.150Z,991.37
2023-02-25T05:39:25.137Z,991.38
2023-02-25T05:40:25.128Z,991.44
2023-02-25T05:41:25.106Z,991.54
2023-02-25T05:42:25.109Z,991.41
2023-02-25T05:43:25.085Z,991.49
2023-02-25T05:44:25.069Z,991.53
2023-02-25T05:45:25.059Z,991.48
2023-02-25T05:46:25.531Z,991.57
2023-02-25T05:47:25.035Z,991.59
2023-02-25T05:48:25.017Z,991.58
2023-02-25T05:49:25.004Z,991.62
2023-02-25T05:50:24.989Z,991.64
2023-02-25T05:51:24.985Z,991.61
2023-02-25T05:52:24.960Z,991.66
2023-02-25T05:53:24.950Z,991.67
2023-02-25T05:54:24.937Z,991.79
2023-02-25T05:55:24.917Z,991.80
2023-02-25T05:56:25.299Z,991.76
2023-02-25T05:57:24.892Z,991.82
2023-02-25T05:58:24.876Z,991.75
2023-02-25T05:59:24.876Z,991.82
2023-02-25T06:00:24.847Z,991.87
2023-02-25T06:01:24.842Z,991.90
2023-02-25T06:02:24.903Z,991.87
2023-02-25T06:03:25.601Z,991.81
2023-02-25T06:04:24.804Z,991.91
2023-02-25T06:05:24.795Z,991.89
2023-02-25T06:06:25.190Z,991.94
2023-02-25T06:07:24.752Z,991.92
2023-02-25T06:08:24.784Z,991.99
2023-02-25T06:09:24.728Z,992.02
2023-02-25T06:10:24.713Z,991.99
2023-02-25T06:11:24.694Z,991.99
2023-02-25T06:12:24.684Z,992.10
2023-02-25T06:13:24.671Z,992.03
2023-02-25T06:14:24.666Z,992.10
2023-02-25T06:15:24.642Z,992.13
2023-02-25T06:16:25.165Z,992.08
2023-02-25T06:17:24.627Z,992.14
2023-02-25T06:18:24.607Z,992.18
2023-02-25T06:19:24.589Z,992.14
2023-02-25T06:20:24.575Z,992.13
2023-02-25T06:21:24.587Z,992.23
2023-02-25T06:22:24.549Z,992.27
2023-02-25T06:23:24.551Z,992.24
2023-02-25T06:24:24.530Z,992.28
2023-02-25T06:25:24.506Z,992.33
2023-02-25T06:26:24.911Z,992.33
2023-02-25T06:27:24.478Z,992.40
2023-02-25T06:28:24.470Z,992.40
2023-02-25T06:29:24.463Z,992.37
2023-02-25T06:30:24.460Z,992.42
2023-02-25T06:31:24.438Z,992.42
2023-02-25T06:32:24.544Z,992.45
2023-02-25T06:33:24.404Z,992.51
2023-02-25T06:34:24.383Z,992.57
2023-02-25T06:35:24.367Z,992.56
2023-02-25T06:36:24.754Z,992.59
2023-02-25T06:37:24.379Z,992.58
2023-02-25T06:38:24.328Z,992.61
2023-02-25T06:39:24.316Z,992.62
2023-02-25T06:40:25.302Z,992.68
2023-02-25T06:41:24.289Z,992.58
2023-02-25T06:42:24.277Z,992.72
2023-02-25T06:43:24.259Z,992.71
2023-02-25T06:44:24.248Z,992.73
2023-02-25T06:45:24.238Z,992.81
2023-02-25T06:46:24.710Z,992.77
2023-02-25T06:47:24.212Z,992.77
2023-02-25T06:48:24.195Z,992.80
2023-02-25T06:49:24.173Z,992.81
2023-02-25T06:50:24.162Z,992.85
2023-02-25T06:51:24.159Z,992.79
2023-02-25T06:52:24.136Z,992.86
2023-02-25T06:53:24.123Z,992.97
2023-02-25T06:54:24.107Z,993.00
2023-02-25T06:55:24.095Z,993.01
2023-02-25T06:56:24.306Z,992.98
2023-02-25T06:57:24.068Z,993.06
2023-02-25T06:58:24.053Z,993.02
2023-02-25T06:59:24.040Z,993.05
2023-02-25T07:00:24.028Z,993.12
2023-02-25T07:01:24.085Z,993.09
2023-02-25T07:02:23.996Z,993.10
2023-02-25T07:03:23.988Z,993.14
2023-02-25T07:04:23.990Z,993.10
2023-02-25T07:05:23.959Z,993.13
2023-02-25T07:06:24.327Z,993.20
2023-02-25T07:07:23.926Z,993.19
2023-02-25T07:08:23.917Z,993.24
2023-02-25T07:09:23.919Z,993.20
2023-02-25T07:10:23.882Z,993.20
2023-02-25T07:11:23.878Z,993.26
2023-02-25T07:12:23.854Z,993.27
2023-02-25T07:13:23.851Z,993.31
2023-02-25T07:14:23.828Z,993.39
2023-02-25T07:15:23.817Z,993.33
2023-02-25T07:16:24.145Z,993.35
2023-02-25T07:17:23.792Z,993.30
2023-02-25T07:18:23.814Z,993.40
2023-02-25T07:19:23.766Z,993.40
2023-02-25T07:20:23.748Z,993.49
2023-02-25T07:21:23.742Z,993.44
2023-02-25T07:22:24.341Z,993.51
2023-02-25T07:23:23.711Z,993.46
2023-02-25T07:24:23.691Z,993.49
2023-02-25T07:25:23.717Z,993.56
2023-02-25T07:26:23.937Z,993.57
2023-02-25T07:27:23.653Z,993.60
2023-02-25T07:28:23.638Z,993.59
2023-02-25T07:29:23.623Z,993.60
2023-02-25T07:30:23.616Z,993.61
2023-02-25T07:31:23.988Z,993.65
2023-02-25T07:32:24.009Z,993.67
2023-02-25T07:33:23.577Z,993.71
2023-02-25T07:34:23.554Z,993.71
2023-02-25T07:35:23.543Z,993.69
2023-02-25T07:36:23.526Z,993.77
2023-02-25T07:37:23.538Z,993.71
2023-02-25T07:38:23.519Z,993.80
2023-02-25T07:39:23.500Z,993.77
2023-02-25T07:40:23.478Z,993.82
2023-02-25T07:41:23.771Z,993.82
2023-02-25T07:42:23.450Z,993.84
2023-02-25T07:43:23.435Z,993.86
2023-02-25T07:44:23.429Z,993.91
2023-02-25T07:45:23.453Z,993.91
2023-02-25T07:46:23.432Z,993.95
2023-02-25T07:47:23.384Z,993.91
2023-02-25T07:48:23.368Z,994.00
2023-02-25T07:49:23.355Z,993.98
2023-02-25T07:50:23.342Z,994.01
2023-02-25T07:51:23.703Z,994.02
2023-02-25T07:52:23.317Z,994.02
2023-02-25T07:53:23.297Z,994.04
2023-02-25T07:54:23.286Z,994.05
2023-02-25T07:55:23.279Z,994.01
2023-02-25T07:56:23.259Z,994.08
2023-02-25T07:57:23.246Z,994.06
2023-02-25T07:58:23.235Z,993.97
2023-02-25T07:59:23.247Z,994.05
2023-02-25T08:00:23.204Z,994.06
2023-02-25T08:01:23.563Z,994.07
2023-02-25T08:02:23.197Z,994.08
2023-02-25T08:03:23.216Z,994.12
2023-02-25T08:04:23.170Z,994.12
2023-02-25T08:05:23.138Z,994.09
2023-02-25T08:06:23.123Z,994.10
2023-02-25T08:07:23.129Z,994.14
2023-02-25T08:08:23.096Z,994.18
2023-02-25T08:09:23.115Z,994.17
2023-02-25T08:10:23.070Z,994.18
2023-02-25T08:11:23.346Z,994.12
2023-02-25T08:12:23.066Z,994.18
2023-02-25T08:13:23.031Z,994.18
2023-02-25T08:14:23.020Z,994.22
2023-02-25T08:15:23.008Z,994.24
2023-02-25T08:16:23.061Z,994.27
2023-02-25T08:17:22.976Z,994.27
2023-02-25T08:18:23.018Z,994.31
2023-02-25T08:19:22.952Z,994.27
2023-02-25T08:20:22.952Z,994.33
2023-02-25T08:21:23.257Z,994.41
2023-02-25T08:22:22.920Z,994.39
2023-02-25T08:23:22.892Z,994.41
2023-02-25T08:24:22.880Z,994.42
2023-02-25T08:25:22.871Z,994.43
2023-02-25T08:26:22.869Z,994.45
2023-02-25T08:27:22.846Z,994.47
2023-02-25T08:28:22.827Z,994.54
2023-02-25T08:29:22.813Z,994.49
2023-02-25T08:30:22.800Z,994.50
2023-02-25T08:31:23.380Z,994.54
2023-02-25T08:32:22.957Z,994.58
2023-02-25T08:33:22.755Z,994.62
2023-02-25T08:34:22.748Z,994.60
2023-02-25T08:35:22.728Z,994.58
2023-02-25T08:36:22.739Z,994.61
2023-02-25T08:37:22.708Z,994.63
2023-02-25T08:38:22.694Z,994.68
2023-02-25T08:39:22.681Z,994.68
2023-02-25T08:40:22.663Z,994.73
2023-02-25T08:41:23.068Z,994.77
2023-02-25T08:42:22.637Z,994.78
2023-02-25T08:43:22.624Z,994.80
2023-02-25T08:44:22.608Z,994.84
2023-02-25T08:45:22.594Z,994.73
2023-02-25T08:46:22.599Z,994.79
2023-02-25T08:47:22.577Z,994.85
2023-02-25T08:48:22.557Z,994.88
2023-02-25T08:49:22.553Z,994.82
2023-02-25T08:50:22.525Z,994.90
2023-02-25T08:51:22.965Z,994.88
2023-02-25T08:52:22.499Z,994.95
2023-02-25T08:53:22.485Z,994.97
2023-02-25T08:54:22.472Z,994.98
2023-02-25T08:55:22.460Z,995.01
2023-02-25T08:56:22.441Z,995.10
2023-02-25T08:57:22.430Z,995.02
2023-02-25T08:58:22.511Z,995.04
2023-02-25T08:59:22.429Z,995.11
2023-02-25T09:00:22.387Z,995.12
2023-02-25T09:01:22.854Z,995.17
2023-02-25T09:02:22.361Z,995.14
2023-02-25T09:03:22.350Z,995.23
2023-02-25T09:04:22.378Z,995.21
2023-02-25T09:05:22.318Z,995.21
2023-02-25T09:06:22.316Z,995.29
2023-02-25T09:07:22.293Z,995.29
2023-02-25T09:08:22.277Z,995.27
2023-02-25T09:09:22.303Z,995.29
2023-02-25T09:10:22.249Z,995.35
2023-02-25T09:11:22.853Z,995.33
2023-02-25T09:12:24.628Z,995.39
2023-02-25T09:13:22.220Z,995.33
2023-02-25T09:14:22.195Z,995.45
2023-02-25T09:15:22.181Z,995.42
2023-02-25T09:16:22.258Z,995.43
2023-02-25T09:17:22.164Z,995.42
2023-02-25T09:18:22.139Z,995.46
2023-02-25T09:19:22.125Z,995.48
2023-02-25T09:20:22.116Z,995.51
2023-02-25T09:21:22.516Z,995.52
2023-02-25T09:22:22.088Z,995.51
2023-02-25T09:23:22.111Z,995.44
2023-02-25T09:24:22.060Z,995.50
2023-02-25T09:25:22.048Z,995.48
2023-02-25T09:26:22.047Z,995.48
2023-02-25T09:27:22.047Z,995.52
2023-02-25T09:28:24.250Z,995.51
2023-02-25T09:29:21.992Z,995.53
2023-02-25T09:30:21.982Z,995.48
2023-02-25T09:31:22.590Z,995.56
2023-02-25T09:32:22.131Z,995.62
2023-02-25T09:33:21.942Z,995.65
2023-02-25T09:34:21.924Z,995.67
2023-02-25T09:35:21.912Z,995.72
2023-02-25T09:36:21.901Z,995.80
2023-02-25T09:37:21.923Z,995.82
2023-02-25T09:38:21.874Z,995.76
2023-02-25T09:39:21.865Z,995.81
2023-02-25T09:40:21.947Z,995.81
2023-02-25T09:41:22.204Z,995.83
2023-02-25T09:42:21.838Z,995.86
2023-02-25T09:43:21.804Z,995.84
2023-02-25T09:44:21.802Z,995.94
2023-02-25T09:45:21.780Z,995.89
2023-02-25T09:46:21.765Z,995.81
2023-02-25T09:47:22.007Z,995.93
2023-02-25T09:48:21.739Z,995.93
2023-02-25T09:49:21.725Z,995.91
2023-02-25T09:50:21.940Z,995.88
2023-02-25T09:51:21.915Z,995.93
2023-02-25T09:52:21.691Z,995.95
2023-02-25T09:53:21.682Z,995.94
2023-02-25T09:54:21.661Z,995.95
2023-02-25T09:55:21.648Z,995.95
2023-02-25T09:56:21.636Z,996.07
2023-02-25T09:57:21.628Z,996.04
2023-02-25T09:58:21.609Z,996.10
2023-02-25T09:59:21.620Z,996.13
2023-02-25T10:00:21.585Z,996.19
2023-02-25T10:01:21.943Z,996.20
2023-02-25T10:02:21.662Z,996.21
2023-02-25T10:03:21.692Z,996.24
2023-02-25T10:04:21.534Z,996.19
2023-02-25T10:05:21.524Z,996.28
2023-02-25T10:06:21.505Z,996.31
2023-02-25T10:07:21.581Z,996.33
2023-02-25T10:08:21.477Z,996.34
2023-02-25T10:09:21.466Z,996.37
2023-02-25T10:10:21.454Z,996.38
2023-02-25T10:11:21.852Z,996.43
2023-02-25T10:12:21.429Z,996.40
2023-02-25T10:13:21.415Z,996.43
2023-02-25T10:14:21.394Z,996.40
2023-02-25T10:15:21.389Z,996.49
2023-02-25T10:16:21.419Z,996.42
2023-02-25T10:17:21.360Z,996.47
2023-02-25T10:18:21.386Z,996.49
2023-02-25T10:19:21.366Z,996.54
2023-02-25T10:20:21.454Z,996.58
2023-02-25T10:21:22.156Z,996.54
2023-02-25T10:22:21.393Z,996.54
2023-02-25T10:23:21.295Z,996.55
2023-02-25T10:24:21.265Z,996.63
2023-02-25T10:25:21.249Z,996.61
2023-02-25T10:26:21.235Z,996.66
2023-02-25T10:27:21.232Z,996.68
2023-02-25T10:28:21.208Z,996.69
2023-02-25T10:29:21.197Z,996.75
2023-02-25T10:30:21.179Z,996.75
2023-02-25T10:31:21.340Z,996.78
2023-02-25T10:32:21.302Z,996.84
2023-02-25T10:33:21.135Z,996.79
2023-02-25T10:34:21.130Z,996.73
2023-02-25T10:35:21.115Z,996.78
2023-02-25T10:36:21.121Z,996.76
2023-02-25T10:37:21.096Z,996.77
2023-02-25T10:38:21.071Z,996.77
2023-02-25T10:39:21.061Z,996.78
2023-02-25T10:40:21.081Z,996.79
2023-02-25T10:41:21.325Z,996.76
2023-02-25T10:42:21.032Z,996.80
2023-02-25T10:43:21.016Z,996.80
2023-02-25T10:44:21.234Z,996.78
2023-02-25T10:45:20.996Z,996.77
2023-02-25T10:46:21.061Z,996.74
2023-02-25T10:47:20.968Z,996.81
2023-02-25T10:48:20.944Z,996.75
2023-02-25T10:49:20.953Z,996.81
2023-02-25T10:50:20.940Z,996.79
2023-02-25T10:51:20.961Z,996.78
2023-02-25T10:52:20.888Z,996.82
2023-02-25T10:53:23.192Z,996.85
2023-02-25T10:54:20.862Z,996.81
2023-02-25T10:55:20.923Z,996.88
2023-02-25T10:56:20.838Z,996.82
2023-02-25T10:57:20.823Z,996.97
2023-02-25T10:58:20.815Z,996.98
2023-02-25T10:59:20.799Z,996.97
2023-02-25T11:00:20.785Z,997.00
2023-02-25T11:01:20.920Z,997.00
2023-02-25T11:02:20.799Z,997.01
2023-02-25T11:03:20.745Z,997.02
2023-02-25T11:04:20.735Z,997.08
2023-02-25T11:05:20.728Z,997.09
2023-02-25T11:06:23.037Z,997.11
2023-02-25T11:07:20.695Z,997.06
2023-02-25T11:08:20.682Z,997.08
2023-02-25T11:09:20.680Z,997.06
2023-02-25T11:10:20.654Z,997.11
2023-02-25T11:11:20.714Z,997.16
2023-02-25T11:12:20.627Z,997.16
2023-02-25T11:13:20.615Z,997.15
2023-02-25T11:14:20.613Z,997.15
2023-02-25T11:15:20.619Z,997.20
2023-02-25T11:16:20.688Z,997.13
2023-02-25T11:17:20.576Z,997.16
2023-02-25T11:18:20.634Z,997.19
2023-02-25T11:19:20.540Z,997.26
2023-02-25T11:20:20.542Z,997.23
2023-02-25T11:21:20.535Z,997.25
2023-02-25T11:22:20.508Z,997.27
2023-02-25T11:23:20.489Z,997.30
2023-02-25T11:24:20.476Z,997.28
2023-02-25T11:25:20.665Z,997.35
2023-02-25T11:26:20.446Z,997.38
2023-02-25T11:27:20.443Z,997.33
2023-02-25T11:28:20.416Z,997.35
2023-02-25T11:29:20.499Z,997.42
2023-02-25T11:30:20.412Z,997.41
2023-02-25T11:31:20.501Z,997.37
2023-02-25T11:32:20.454Z,997.39
2023-02-25T11:33:20.359Z,997.43
2023-02-25T11:34:20.343Z,997.45
2023-02-25T11:35:20.322Z,997.42
2023-02-25T11:36:20.309Z,997.43
2023-02-25T11:37:20.304Z,997.45
2023-02-25T11:38:20.297Z,997.49
2023-02-25T11:39:20.278Z,997.51
2023-02-25T11:40:20.305Z,997.49
2023-02-25T11:41:20.254Z,997.60
2023-02-25T11:42:20.229Z,997.54
2023-02-25T11:43:20.225Z,997.55
2023-02-25T11:44:20.210Z,997.62
2023-02-25T11:45:20.195Z,997.48
2023-02-25T11:46:20.211Z,997.55
2023-02-25T11:47:20.187Z,997.58
2023-02-25T11:48:20.153Z,997.62
2023-02-25T11:49:20.141Z,997.62
2023-02-25T11:50:20.134Z,997.63
2023-02-25T11:51:20.115Z,997.61
2023-02-25T11:52:20.119Z,997.76
2023-02-25T11:53:20.118Z,997.62
2023-02-25T11:54:20.091Z,997.64
2023-02-25T11:55:20.070Z,997.70
2023-02-25T11:56:20.056Z,997.75
2023-02-25T11:57:20.053Z,997.63
2023-02-25T11:58:20.025Z,997.82
2023-02-25T11:59:20.020Z,997.76
2023-02-25T12:00:19.997Z,997.81
2023-02-25T12:01:20.207Z,997.77
2023-02-25T12:02:19.971Z,997.73
2023-02-25T12:03:19.985Z,997.80
2023-02-25T12:04:19.937Z,997.68
2023-02-25T12:05:19.959Z,997.77
2023-02-25T12:06:19.918Z,997.83
2023-02-25T12:07:19.906Z,997.70
2023-02-25T12:08:19.901Z,997.79
2023-02-25T12:09:19.881Z,997.83
2023-02-25T12:10:19.867Z,997.87
2023-02-25T12:11:19.852Z,997.83
2023-02-25T12:12:19.840Z,997.89
2023-02-25T12:13:19.873Z,997.85
2023-02-25T12:14:19.818Z,997.81
2023-02-25T12:15:19.799Z,997.87
2023-02-25T12:16:19.938Z,997.95
2023-02-25T12:17:19.775Z,997.94
2023-02-25T12:18:19.783Z,997.97
2023-02-25T12:19:19.776Z,998.04
2023-02-25T12:20:19.731Z,998.03
2023-02-25T12:21:19.744Z,998.05
2023-02-25T12:22:19.707Z,998.11
2023-02-25T12:23:19.703Z,998.12
2023-02-25T12:24:19.698Z,998.14
2023-02-25T12:25:19.671Z,998.12
2023-02-25T12:26:19.661Z,998.21
2023-02-25T12:27:19.645Z,998.14
2023-02-25T12:28:19.633Z,998.15
2023-02-25T12:29:19.618Z,998.15
2023-02-25T12:30:19.603Z,998.22
2023-02-25T12:31:19.644Z,998.19
2023-02-25T12:32:19.620Z,998.24
2023-02-25T12:33:19.565Z,998.27
2023-02-25T12:34:22.377Z,998.29
2023-02-25T12:35:19.535Z,998.29
2023-02-25T12:36:19.536Z,998.24
2023-02-25T12:37:19.515Z,998.31
2023-02-25T12:38:19.507Z,998.36
2023-02-25T12:39:19.490Z,998.31